Time,TemperatureF,DewpointF,PressureIn,WindDirection,WindDirectionDegrees,WindSpeedMPH,WindSpeedGustMPH,Humidity,HourlyPrecipIn,Conditions,Clouds,dailyrainin,SoftwareType,DateUTC
2013-01-11 14:24:00,44.1,36.4,29.93,East,90,0.4,0.4,74,0.00,,,0.00,WUHU216HW,2013-01-11 22:24:00,
2013-01-11 14:25:00,44.1,36.4,29.93,East,90,0.4,0.4,74,0.00,,,0.00,WUHU216HW,2013-01-11 22:25:00,
2013-01-11 14:30:00,44.1,36.4,29.93,ESE,113,0.4,0.9,74,0.00,,,0.00,WUHU216HW,2013-01-11 22:30:00,
2013-01-11 14:35:00,44.3,36.5,29.93,ESE,113,0.4,0.9,74,0.00,,,0.00,WUHU216HW,2013-01-11 22:35:00,
2013-01-11 14:40:00,44.3,36.5,29.93,East,90,0.0,0.7,74,0.00,,,0.00,WUHU216HW,2013-01-11 22:40:00,
2013-01-11 14:45:00,44.3,36.5,29.93,East,90,0.2,0.7,74,0.00,,,0.00,WUHU216HW,2013-01-11 22:45:00,
2013-01-11 14:50:00,44.1,36.4,29.93,West,270,0.0,0.4,74,0.00,,,0.00,WUHU216HW,2013-01-11 22:50:00,
2013-01-11 14:55:00,43.7,35.0,29.94,West,270,0.4,0.9,71,0.00,,,0.00,WUHU216HW,2013-01-11 22:55:00,
2013-01-11 15:00:00,43.6,34.8,29.94,WSW,248,0.4,0.9,71,0.00,,,0.00,WUHU216HW,2013-01-11 23:00:00,
2013-01-11 15:05:00,43.4,34.3,29.94,West,270,0.2,0.9,70,0.00,,,0.00,WUHU216HW,2013-01-11 23:05:00,
2013-01-11 15:10:00,43.6,35.2,29.94,West,270,0.0,0.9,72,0.00,,,0.00,WUHU216HW,2013-01-11 23:10:00,
2013-01-11 15:15:00,43.9,36.2,29.94,ESE,113,0.2,0.4,74,0.00,,,0.00,WUHU216HW,2013-01-11 23:15:00,
2013-01-11 15:20:00,44.3,36.5,29.94,ESE,113,0.0,0.7,74,0.00,,,0.00,WUHU216HW,2013-01-11 23:20:00,
2013-01-11 15:25:00,44.8,36.6,29.94,ESE,113,0.2,0.7,73,0.00,,,0.00,WUHU216HW,2013-01-11 23:25:00,
2013-01-11 15:30:00,44.8,36.6,29.94,WSW,248,0.0,0.4,73,0.00,,,0.00,WUHU216HW,2013-01-11 23:30:00,
2013-01-11 15:35:00,45.2,37.0,29.94,WSW,248,0.0,0.4,73,0.00,,,0.00,WUHU216HW,2013-01-11 23:35:00,
2013-01-11 15:40:00,45.2,36.7,29.94,East,90,0.2,0.7,72,0.00,,,0.00,WUHU216HW,2013-01-11 23:40:00,
2013-01-11 15:45:00,44.6,36.2,29.94,East,90,0.0,0.7,72,0.00,,,0.00,WUHU216HW,2013-01-11 23:45:00,
2013-01-11 15:50:00,44.6,36.2,29.94,East,90,0.0,0.7,72,0.00,,,0.00,WUHU216HW,2013-01-11 23:50:00,
2013-01-11 15:55:00,43.7,35.3,29.94,East,90,0.0,0.0,72,0.00,,,0.00,WUHU216HW,2013-01-11 23:55:00,
2013-01-11 16:00:00,43.2,34.8,29.94,East,90,0.0,0.2,72,0.00,,,0.00,WUHU216HW,2013-01-12 00:00:00,
2013-01-11 16:05:00,42.5,33.9,29.94,WNW,293,0.4,0.4,71,0.00,,,0.00,WUHU216HW,2013-01-12 00:05:00,
2013-01-11 16:10:00,41.6,33.2,29.94,WNW,293,0.0,0.4,72,0.00,,,0.00,WUHU216HW,2013-01-12 00:10:00,
2013-01-11 16:15:00,41.2,32.9,29.94,WNW,293,0.0,0.4,72,0.00,,,0.00,WUHU216HW,2013-01-12 00:15:00,
2013-01-11 16:20:00,40.9,32.9,29.94,WNW,293,0.0,0.2,73,0.00,,,0.00,WUHU216HW,2013-01-12 00:20:00,
2013-01-11 16:25:00,40.5,32.5,29.94,WNW,293,0.0,0.2,73,0.00,,,0.00,WUHU216HW,2013-01-12 00:25:00,
2013-01-11 16:30:00,40.1,31.8,29.94,WNW,293,0.0,0.0,72,0.00,,,0.00,WUHU216HW,2013-01-12 00:30:00,
2013-01-11 16:35:00,40.0,32.0,29.94,WNW,293,0.0,0.0,73,0.00,,,0.00,WUHU216HW,2013-01-12 00:35:00,
2013-01-11 16:40:00,39.6,31.6,29.94,WNW,293,0.0,0.0,73,0.00,,,0.00,WUHU216HW,2013-01-12 00:40:00,
2013-01-11 16:45:00,39.2,31.6,29.94,WNW,293,0.0,0.0,74,0.00,,,0.00,WUHU216HW,2013-01-12 00:45:00,
2013-01-11 16:50:00,39.2,31.6,29.94,WNW,293,0.0,0.0,74,0.00,,,0.00,WUHU216HW,2013-01-12 00:50:00,
2013-01-11 16:55:00,38.7,31.4,29.94,WNW,293,0.0,0.0,75,0.00,,,0.00,WUHU216HW,2013-01-12 00:55:00,
2013-01-11 17:00:00,38.5,31.6,29.94,WNW,293,0.0,0.0,76,0.00,,,0.00,WUHU216HW,2013-01-12 01:00:00,
2013-01-11 17:05:00,38.0,31.1,29.94,WNW,293,0.0,0.0,76,0.00,,,0.00,WUHU216HW,2013-01-12 01:05:00,
2013-01-11 17:10:00,37.6,31.1,29.94,WNW,293,0.0,0.0,77,0.00,,,0.00,WUHU216HW,2013-01-12 01:10:00,
2013-01-11 17:15:00,37.3,30.4,29.94,WNW,293,0.0,0.0,76,0.00,,,0.00,WUHU216HW,2013-01-12 01:15:00,
2013-01-11 17:20:00,37.1,30.5,29.94,WNW,293,0.0,0.0,77,0.00,,,0.00,WUHU216HW,2013-01-12 01:20:00,
2013-01-11 17:25:00,36.9,30.3,29.94,WNW,293,0.0,0.0,77,0.00,,,0.00,WUHU216HW,2013-01-12 01:25:00,
2013-01-11 17:30:00,36.7,30.5,29.94,WNW,293,0.0,0.0,78,0.00,,,0.00,WUHU216HW,2013-01-12 01:30:00,
2013-01-11 17:35:00,36.4,30.2,29.95,WNW,293,0.0,0.0,78,0.00,,,0.00,WUHU216HW,2013-01-12 01:35:00,
2013-01-11 17:40:00,36.2,30.0,29.95,WNW,293,0.0,0.0,78,0.00,,,0.00,WUHU216HW,2013-01-12 01:40:00,
2013-01-11 17:45:00,36.0,30.1,29.95,WNW,293,0.0,0.0,79,0.00,,,0.00,WUHU216HW,2013-01-12 01:45:00,
2013-01-11 17:50:00,35.6,29.7,29.95,WNW,293,0.0,0.0,79,0.00,,,0.00,WUHU216HW,2013-01-12 01:50:00,
2013-01-11 17:55:00,35.5,29.9,29.95,WNW,293,0.0,0.0,80,0.00,,,0.00,WUHU216HW,2013-01-12 01:55:00,
2013-01-11 18:00:00,35.1,29.5,29.95,WNW,293,0.0,0.0,80,0.00,,,0.00,WUHU216HW,2013-01-12 02:00:00,
2013-01-11 18:05:00,34.9,29.3,29.95,WNW,293,0.0,0.0,80,0.00,,,0.00,WUHU216HW,2013-01-12 02:05:00,
2013-01-11 18:10:00,34.6,29.3,29.95,WNW,293,0.0,0.0,81,0.00,,,0.00,WUHU216HW,2013-01-12 02:10:00,
2013-01-11 18:15:00,34.4,29.3,29.95,WNW,293,0.0,0.0,82,0.00,,,0.00,WUHU216HW,2013-01-12 02:15:00,
2013-01-11 18:20:00,34.2,29.2,29.95,WNW,293,0.0,0.0,82,0.00,,,0.00,WUHU216HW,2013-01-12 02:20:00,
2013-01-11 18:25:00,33.8,28.8,29.96,WNW,293,0.0,0.0,82,0.00,,,0.00,WUHU216HW,2013-01-12 02:25:00,
2013-01-11 18:30:00,33.5,28.5,29.95,WNW,293,0.0,0.0,82,0.00,,,0.00,WUHU216HW,2013-01-12 02:30:00,
2013-01-11 18:35:00,32.9,28.4,29.95,WNW,293,0.0,0.0,83,0.00,,,0.00,WUHU216HW,2013-01-12 02:35:00,
2013-01-11 18:40:00,32.8,28.2,29.96,WNW,293,0.0,0.0,83,0.00,,,0.00,WUHU216HW,2013-01-12 02:40:00,
2013-01-11 18:45:00,32.6,28.0,29.96,WNW,293,0.0,0.0,83,0.00,,,0.00,WUHU216HW,2013-01-12 02:45:00,
2013-01-11 18:50:00,32.6,28.0,29.96,WNW,293,0.0,0.0,83,0.00,,,0.00,WUHU216HW,2013-01-12 02:50:00,
2013-01-11 18:55:00,32.4,27.8,29.96,ESE,113,0.0,0.4,83,0.00,,,0.00,WUHU216HW,2013-01-12 02:55:00,
2013-01-11 19:00:00,32.4,27.8,29.96,ESE,113,0.0,0.4,83,0.00,,,0.00,WUHU216HW,2013-01-12 03:00:00,
2013-01-11 19:05:00,32.2,27.6,29.96,ESE,113,0.0,0.0,83,0.00,,,0.00,WUHU216HW,2013-01-12 03:05:00,
2013-01-11 19:10:00,32.2,28.3,29.96,ESE,113,0.0,0.0,85,0.00,,,0.00,WUHU216HW,2013-01-12 03:10:00,
2013-01-11 19:15:00,32.0,28.4,29.96,ESE,113,0.0,0.0,86,0.00,,,0.00,WUHU216HW,2013-01-12 03:15:00,
2013-01-11 19:20:00,31.9,27.9,29.96,ESE,113,0.0,0.0,85,0.00,,,0.00,WUHU216HW,2013-01-12 03:20:00,
2013-01-11 19:25:00,31.7,27.7,29.96,ESE,113,0.0,0.0,85,0.00,,,0.00,WUHU216HW,2013-01-12 03:25:00,
2013-01-11 19:30:00,31.5,27.8,29.96,ESE,113,0.0,0.0,86,0.00,,,0.00,WUHU216HW,2013-01-12 03:30:00,
2013-01-11 19:35:00,31.5,27.5,29.96,ESE,113,0.0,0.0,85,0.00,,,0.00,WUHU216HW,2013-01-12 03:35:00,
2013-01-11 19:40:00,31.3,27.4,29.96,ESE,113,0.0,0.0,85,0.00,,,0.00,WUHU216HW,2013-01-12 03:40:00,
2013-01-11 19:45:00,31.3,27.4,29.96,ESE,113,0.0,0.0,85,0.00,,,0.00,WUHU216HW,2013-01-12 03:45:00,
2013-01-11 19:50:00,31.1,27.2,29.96,ESE,113,0.0,0.0,85,0.00,,,0.00,WUHU216HW,2013-01-12 03:50:00,
2013-01-11 19:55:00,31.1,27.5,29.96,ESE,113,0.0,0.0,86,0.00,,,0.00,WUHU216HW,2013-01-12 03:55:00,
2013-01-11 20:00:00,31.0,27.5,29.96,ESE,113,0.0,0.0,87,0.00,,,0.00,WUHU216HW,2013-01-12 04:00:00,
2013-01-11 20:05:00,31.1,27.7,29.96,ESE,113,0.0,0.0,87,0.00,,,0.00,WUHU216HW,2013-01-12 04:05:00,
2013-01-11 20:10:00,31.0,27.3,29.97,ESE,113,0.0,0.0,86,0.00,,,0.00,WUHU216HW,2013-01-12 04:10:00,
2013-01-11 20:15:00,31.0,27.3,29.97,ESE,113,0.0,0.0,86,0.00,,,0.00,WUHU216HW,2013-01-12 04:15:00,
2013-01-11 20:20:00,30.6,27.6,29.97,ESE,113,0.0,0.0,88,0.00,,,0.00,WUHU216HW,2013-01-12 04:20:00,
2013-01-11 20:25:00,30.4,27.4,29.96,ESE,113,0.0,0.0,88,0.00,,,0.00,WUHU216HW,2013-01-12 04:25:00,
2013-01-11 20:30:00,30.4,27.0,29.96,ESE,113,0.0,0.0,87,0.00,,,0.00,WUHU216HW,2013-01-12 04:30:00,
2013-01-11 20:35:00,30.4,27.4,29.96,ESE,113,0.0,0.0,88,0.00,,,0.00,WUHU216HW,2013-01-12 04:35:00,
2013-01-11 20:40:00,30.4,27.4,29.96,ESE,113,0.0,0.0,88,0.00,,,0.00,WUHU216HW,2013-01-12 04:40:00,
2013-01-11 20:45:00,30.1,27.0,29.96,ESE,113,0.0,0.0,88,0.00,,,0.00,WUHU216HW,2013-01-12 04:45:00,
2013-01-11 20:50:00,30.1,26.6,29.96,ESE,113,0.0,0.0,87,0.00,,,0.00,WUHU216HW,2013-01-12 04:50:00,
2013-01-11 20:55:00,30.1,26.6,29.97,ESE,113,0.0,0.0,87,0.00,,,0.00,WUHU216HW,2013-01-12 04:55:00,
2013-01-11 21:00:00,30.2,27.5,29.97,ESE,113,0.0,0.0,89,0.00,,,0.00,WUHU216HW,2013-01-12 05:00:00,
2013-01-11 21:01:00,30.2,27.5,29.97,ESE,113,0.0,0.0,89,0.00,,,0.00,WUHU216HW,2013-01-12 05:01:00,
2013-01-11 21:06:00,30.2,27.5,29.97,ESE,113,0.0,0.0,89,0.00,,,0.00,WUHU216HW,2013-01-12 05:06:00,
2013-01-11 21:11:00,30.2,27.5,29.97,ESE,113,0.0,0.0,89,0.00,,,0.00,WUHU216HW,2013-01-12 05:11:00,
2013-01-11 21:16:00,30.1,27.0,29.97,ESE,113,0.0,0.0,88,0.00,,,0.00,WUHU216HW,2013-01-12 05:16:00,
2013-01-11 21:21:00,30.1,27.0,29.97,ESE,113,0.0,0.0,88,0.00,,,0.00,WUHU216HW,2013-01-12 05:21:00,
2013-01-11 21:26:00,29.9,26.8,29.96,ESE,113,0.0,0.0,88,0.00,,,0.00,WUHU216HW,2013-01-12 05:26:00,
2013-01-11 21:31:00,29.9,26.8,29.96,ESE,113,0.0,0.0,88,0.00,,,0.00,WUHU216HW,2013-01-12 05:31:00,
2013-01-11 21:36:00,29.9,27.1,29.96,ESE,113,0.0,0.0,89,0.00,,,0.00,WUHU216HW,2013-01-12 05:36:00,
2013-01-11 21:41:00,29.9,27.1,29.96,ESE,113,0.0,0.0,89,0.00,,,0.00,WUHU216HW,2013-01-12 05:41:00,
2013-01-11 21:46:00,29.9,26.8,29.97,ESE,113,0.0,0.0,88,0.00,,,0.00,WUHU216HW,2013-01-12 05:46:00,
2013-01-11 21:51:00,29.9,27.1,29.97,ESE,113,0.0,0.0,89,0.00,,,0.00,WUHU216HW,2013-01-12 05:51:00,
2013-01-11 21:56:00,29.7,26.7,29.97,ESE,113,0.0,0.0,88,0.00,,,0.00,WUHU216HW,2013-01-12 05:56:00,
2013-01-11 22:01:00,29.7,26.7,29.97,ESE,113,0.0,0.0,88,0.00,,,0.00,WUHU216HW,2013-01-12 06:01:00,
2013-01-11 22:06:00,29.5,26.5,29.96,ESE,113,0.0,0.0,88,0.00,,,0.00,WUHU216HW,2013-01-12 06:06:00,
2013-01-11 22:11:00,29.5,26.7,29.96,ESE,113,0.0,0.0,89,0.00,,,0.00,WUHU216HW,2013-01-12 06:11:00,
2013-01-11 22:16:00,29.5,26.7,29.96,ESE,113,0.0,0.0,89,0.00,,,0.00,WUHU216HW,2013-01-12 06:16:00,
2013-01-11 22:21:00,29.5,26.7,29.97,ESE,113,0.0,0.0,89,0.00,,,0.00,WUHU216HW,2013-01-12 06:21:00,
2013-01-11 22:26:00,29.5,26.7,29.97,ESE,113,0.0,0.0,89,0.00,,,0.00,WUHU216HW,2013-01-12 06:26:00,
2013-01-11 22:31:00,29.5,26.7,29.96,ESE,113,0.0,0.0,89,0.00,,,0.00,WUHU216HW,2013-01-12 06:31:00,
2013-01-11 22:36:00,29.5,26.7,29.96,ESE,113,0.0,0.0,89,0.00,,,0.00,WUHU216HW,2013-01-12 06:36:00,
2013-01-11 22:41:00,29.5,27.0,29.96,ESE,113,0.0,0.0,90,0.00,,,0.00,WUHU216HW,2013-01-12 06:41:00,
2013-01-11 22:46:00,29.5,27.0,29.96,ESE,113,0.0,0.0,90,0.00,,,0.00,WUHU216HW,2013-01-12 06:46:00,
2013-01-11 22:51:00,29.3,26.6,29.96,ESE,113,0.0,0.0,89,0.00,,,0.00,WUHU216HW,2013-01-12 06:51:00,
2013-01-11 22:56:00,29.5,27.0,29.96,ESE,113,0.0,0.0,90,0.00,,,0.00,WUHU216HW,2013-01-12 06:56:00,
2013-01-11 23:01:00,29.5,27.0,29.96,ESE,113,0.0,0.0,90,0.00,,,0.00,WUHU216HW,2013-01-12 07:01:00,
2013-01-11 23:06:00,29.5,27.0,29.96,ESE,113,0.0,0.0,90,0.00,,,0.00,WUHU216HW,2013-01-12 07:06:00,
2013-01-11 23:11:00,29.7,26.9,29.96,ESE,113,0.0,0.0,89,0.00,,,0.00,WUHU216HW,2013-01-12 07:11:00,
2013-01-11 23:16:00,29.5,26.7,29.96,ESE,113,0.0,0.0,89,0.00,,,0.00,WUHU216HW,2013-01-12 07:16:00,
2013-01-11 23:21:00,29.5,26.7,29.96,ESE,113,0.0,0.0,89,0.00,,,0.00,WUHU216HW,2013-01-12 07:21:00,
2013-01-11 23:26:00,29.5,26.7,29.96,ESE,113,0.0,0.0,89,0.00,,,0.00,WUHU216HW,2013-01-12 07:26:00,
2013-01-11 23:31:00,29.5,26.7,29.96,ESE,113,0.0,0.0,89,0.00,,,0.00,WUHU216HW,2013-01-12 07:31:00,
2013-01-11 23:36:00,29.3,26.6,29.96,ESE,113,0.0,0.0,89,0.00,,,0.00,WUHU216HW,2013-01-12 07:36:00,
2013-01-11 23:41:00,29.3,26.6,29.96,ESE,113,0.0,0.0,89,0.00,,,0.00,WUHU216HW,2013-01-12 07:41:00,
2013-01-11 23:46:00,29.2,26.6,29.96,ESE,113,0.0,0.0,90,0.00,,,0.00,WUHU216HW,2013-01-12 07:46:00,
2013-01-11 23:51:00,29.0,26.5,29.96,ESE,113,0.0,0.0,90,0.00,,,0.00,WUHU216HW,2013-01-12 07:51:00,
2013-01-11 23:56:00,29.0,26.5,29.96,ESE,113,0.0,0.0,90,0.00,,,0.00,WUHU216HW,2013-01-12 07:56:00,